sensor_id;sensor_type;location;lat;lon;timestamp;pressure;altitude;pressure_sealevel;temperature;humidity
9889;BME280;4983;42.112;24.738;2024-02-15T00:01:04;100084.63;;;8.18;51.56
9889;BME280;4983;42.112;24.738;2024-02-15T00:03:30;100096.63;;;8.20;51.52
9889;BME280;4983;42.112;24.738;2024-02-15T00:05:57;100097.44;;;8.21;51.91
9889;BME280;4983;42.112;24.738;2024-02-15T00:08:22;100076.94;;;8.07;51.26
9889;BME280;4983;42.112;24.738;2024-02-15T00:10:50;100095.78;;;8.20;51.27
9889;BME280;4983;42.112;24.738;2024-02-15T00:13:15;100097.75;;;8.18;50.85
9889;BME280;4983;42.112;24.738;2024-02-15T00:15:40;100087.53;;;8.15;51.30
9889;BME280;4983;42.112;24.738;2024-02-15T00:18:06;100097.22;;;8.14;50.62
9889;BME280;4983;42.112;24.738;2024-02-15T00:20:32;100085.88;;;8.14;51.05
9889;BME280;4983;42.112;24.738;2024-02-15T00:23:00;100082.41;;;8.13;51.18
9889;BME280;4983;42.112;24.738;2024-02-15T00:25:26;100099.41;;;8.19;51.52
9889;BME280;4983;42.112;24.738;2024-02-15T00:27:51;100094.44;;;8.16;51.65
9889;BME280;4983;42.112;24.738;2024-02-15T00:30:17;100092.78;;;8.15;51.26
9889;BME280;4983;42.112;24.738;2024-02-15T00:32:42;100087.38;;;8.16;50.50
9889;BME280;4983;42.112;24.738;2024-02-15T00:35:09;100080.09;;;8.10;51.15
9889;BME280;4983;42.112;24.738;2024-02-15T00:37:35;100090.81;;;8.17;51.64
9889;BME280;4983;42.112;24.738;2024-02-15T00:40:01;100096.63;;;8.20;50.69
9889;BME280;4983;42.112;24.738;2024-02-15T00:42:32;100098.56;;;8.18;51.16
9889;BME280;4983;42.112;24.738;2024-02-15T00:44:57;100093.16;;;8.20;50.95
9889;BME280;4983;42.112;24.738;2024-02-15T00:47:23;100090.69;;;8.18;50.61
9889;BME280;4983;42.112;24.738;2024-02-15T00:49:48;100089.56;;;8.21;50.49
9889;BME280;4983;42.112;24.738;2024-02-15T00:52:15;100087.53;;;8.15;51.24
9889;BME280;4983;42.112;24.738;2024-02-15T00:54:41;100088.75;;;8.20;50.60
9889;BME280;4983;42.112;24.738;2024-02-15T00:57:06;100087.25;;;8.18;50.53
9889;BME280;4983;42.112;24.738;2024-02-15T00:59:32;100088.34;;;8.15;51.62
9889;BME280;4983;42.112;24.738;2024-02-15T01:02:01;100095.03;;;8.10;50.89
9889;BME280;4983;42.112;24.738;2024-02-15T01:04:27;100093.38;;;8.09;51.19
9889;BME280;4983;42.112;24.738;2024-02-15T01:06:53;100083.44;;;8.03;51.51
9889;BME280;4983;42.112;24.738;2024-02-15T01:09:18;100089.09;;;8.08;51.05
9889;BME280;4983;42.112;24.738;2024-02-15T01:11:44;100086.75;;;8.05;52.12
9889;BME280;4983;42.112;24.738;2024-02-15T01:14:09;100078.94;;;7.95;51.82
9889;BME280;4983;42.112;24.738;2024-02-15T01:16:35;100093.44;;;7.99;51.71
9889;BME280;4983;42.112;24.738;2024-02-15T01:19:02;100087.88;;;8.02;52.40
9889;BME280;4983;42.112;24.738;2024-02-15T01:21:27;100092.16;;;8.03;51.06
9889;BME280;4983;42.112;24.738;2024-02-15T01:23:53;100087.03;;;8.02;51.83
9889;BME280;4983;42.112;24.738;2024-02-15T01:26:21;100090.56;;;7.93;51.30
9889;BME280;4983;42.112;24.738;2024-02-15T01:28:46;100072.19;;;7.83;51.95
9889;BME280;4983;42.112;24.738;2024-02-15T01:31:12;100089.03;;;7.90;52.00
9889;BME280;4983;42.112;24.738;2024-02-15T01:33:38;100086.41;;;7.90;52.74
9889;BME280;4983;42.112;24.738;2024-02-15T01:36:04;100087.69;;;7.86;51.23
9889;BME280;4983;42.112;24.738;2024-02-15T01:38:30;100087.28;;;7.81;52.47
9889;BME280;4983;42.112;24.738;2024-02-15T01:40:55;100086.19;;;7.84;51.65
9889;BME280;4983;42.112;24.738;2024-02-15T01:43:20;100086.75;;;7.78;51.76
9889;BME280;4983;42.112;24.738;2024-02-15T01:45:46;100087.97;;;7.83;51.38
9889;BME280;4983;42.112;24.738;2024-02-15T01:48:16;100091.34;;;7.76;52.31
9889;BME280;4983;42.112;24.738;2024-02-15T01:50:42;100099.88;;;7.78;51.64
9889;BME280;4983;42.112;24.738;2024-02-15T01:53:09;100099.47;;;7.82;51.94
9889;BME280;4983;42.112;24.738;2024-02-15T01:55:35;100102.09;;;7.82;52.38
9889;BME280;4983;42.112;24.738;2024-02-15T01:58:03;100092.69;;;7.80;52.61
9889;BME280;4983;42.112;24.738;2024-02-15T02:00:30;100094.63;;;7.78;52.87
9889;BME280;4983;42.112;24.738;2024-02-15T02:02:56;100092.88;;;7.69;51.80
9889;BME280;4983;42.112;24.738;2024-02-15T02:05:27;100102.56;;;7.68;51.73
9889;BME280;4983;42.112;24.738;2024-02-15T02:07:53;100102.03;;;7.65;51.61
9889;BME280;4983;42.112;24.738;2024-02-15T02:10:18;100099.00;;;7.60;52.73
9889;BME280;4983;42.112;24.738;2024-02-15T02:12:44;100102.19;;;7.63;52.16
9889;BME280;4983;42.112;24.738;2024-02-15T02:15:09;100099.28;;;7.57;51.87
9889;BME280;4983;42.112;24.738;2024-02-15T02:17:36;100102.22;;;7.54;52.89
9889;BME280;4983;42.112;24.738;2024-02-15T02:20:02;100100.41;;;7.54;52.43
9889;BME280;4983;42.112;24.738;2024-02-15T02:22:33;100109.69;;;7.49;51.97
9889;BME280;4983;42.112;24.738;2024-02-15T02:27:29;100106.38;;;7.47;52.16
9889;BME280;4983;42.112;24.738;2024-02-15T02:29:55;100101.41;;;7.44;52.49
9889;BME280;4983;42.112;24.738;2024-02-15T02:32:21;100104.59;;;7.38;52.31
9889;BME280;4983;42.112;24.738;2024-02-15T02:34:46;100118.56;;;7.38;51.92
9889;BME280;4983;42.112;24.738;2024-02-15T02:37:12;100119.38;;;7.39;52.59
9889;BME280;4983;42.112;24.738;2024-02-15T02:39:39;100121.75;;;7.32;53.40
9889;BME280;4983;42.112;24.738;2024-02-15T02:42:04;100126.63;;;7.27;52.65
9889;BME280;4983;42.112;24.738;2024-02-15T02:44:30;100115.53;;;7.24;52.28
9889;BME280;4983;42.112;24.738;2024-02-15T02:46:55;100128.28;;;7.19;52.86
9889;BME280;4983;42.112;24.738;2024-02-15T02:49:21;100132.94;;;7.25;52.84
9889;BME280;4983;42.112;24.738;2024-02-15T02:51:46;100121.06;;;7.21;53.42
9889;BME280;4983;42.112;24.738;2024-02-15T02:54:12;100121.78;;;7.23;53.49
9889;BME280;4983;42.112;24.738;2024-02-15T02:56:40;100122.91;;;7.20;52.88
9889;BME280;4983;42.112;24.738;2024-02-15T02:59:05;100134.34;;;7.19;53.40
9889;BME280;4983;42.112;24.738;2024-02-15T03:01:33;100117.66;;;7.11;53.21
9889;BME280;4983;42.112;24.738;2024-02-15T03:03:58;100115.16;;;7.09;52.15
9889;BME280;4983;42.112;24.738;2024-02-15T03:06:24;100119.03;;;7.15;53.67
9889;BME280;4983;42.112;24.738;2024-02-15T03:08:53;100127.31;;;7.20;53.51
9889;BME280;4983;42.112;24.738;2024-02-15T03:11:21;100125.66;;;7.19;54.16
9889;BME280;4983;42.112;24.738;2024-02-15T03:13:48;100127.69;;;7.25;53.78
9889;BME280;4983;42.112;24.738;2024-02-15T03:16:14;100124.69;;;7.20;53.31
9889;BME280;4983;42.112;24.738;2024-02-15T03:18:42;100124.00;;;7.18;54.04
9889;BME280;4983;42.112;24.738;2024-02-15T03:21:08;100128.28;;;7.19;53.97
9889;BME280;4983;42.112;24.738;2024-02-15T03:23:36;100123.03;;;7.19;52.73
9889;BME280;4983;42.112;24.738;2024-02-15T03:26:02;100126.78;;;7.16;52.74
9889;BME280;4983;42.112;24.738;2024-02-15T03:28:29;100129.94;;;7.20;52.48
9889;BME280;4983;42.112;24.738;2024-02-15T03:30:55;100137.81;;;7.20;53.35
9889;BME280;4983;42.112;24.738;2024-02-15T03:33:21;100132.56;;;7.20;53.61
9889;BME280;4983;42.112;24.738;2024-02-15T03:35:51;100126.31;;;7.21;51.63
9889;BME280;4983;42.112;24.738;2024-02-15T03:38:16;100128.41;;;7.27;52.58
9889;BME280;4983;42.112;24.738;2024-02-15T03:40:42;100131.31;;;7.24;52.43
9889;BME280;4983;42.112;24.738;2024-02-15T03:43:08;100127.03;;;7.23;53.34
9889;BME280;4983;42.112;24.738;2024-02-15T03:45:34;100115.41;;;7.25;52.39
9889;BME280;4983;42.112;24.738;2024-02-15T03:47:59;100121.09;;;7.30;52.99
9889;BME280;4983;42.112;24.738;2024-02-15T03:50:24;100133.25;;;7.31;53.11
9889;BME280;4983;42.112;24.738;2024-02-15T03:52:50;100131.72;;;7.29;53.57
9889;BME280;4983;42.112;24.738;2024-02-15T03:55:18;100131.84;;;7.37;52.34
9889;BME280;4983;42.112;24.738;2024-02-15T03:57:45;100132.13;;;7.34;52.21
9889;BME280;4983;42.112;24.738;2024-02-15T04:00:12;100138.31;;;7.42;52.28
9889;BME280;4983;42.112;24.738;2024-02-15T04:02:40;100140.56;;;7.37;52.16
9889;BME280;4983;42.112;24.738;2024-02-15T04:05:07;100138.06;;;7.36;51.47
9889;BME280;4983;42.112;24.738;2024-02-15T04:07:34;100139.03;;;7.35;52.77
9889;BME280;4983;42.112;24.738;2024-02-15T04:09:59;100133.91;;;7.33;52.99
9889;BME280;4983;42.112;24.738;2024-02-15T04:12:26;100135.72;;;7.33;51.38
9889;BME280;4983;42.112;24.738;2024-02-15T04:14:52;100138.34;;;7.33;52.50
9889;BME280;4983;42.112;24.738;2024-02-15T04:17:18;100142.06;;;7.40;52.69
9889;BME280;4983;42.112;24.738;2024-02-15T04:19:47;100139.72;;;7.37;52.30
9889;BME280;4983;42.112;24.738;2024-02-15T04:22:13;100147.03;;;7.43;51.09
9889;BME280;4983;42.112;24.738;2024-02-15T04:24:41;100144.66;;;7.49;52.23
9889;BME280;4983;42.112;24.738;2024-02-15T04:27:07;100151.19;;;7.45;52.69
9889;BME280;4983;42.112;24.738;2024-02-15T04:29:45;100139.44;;;7.40;52.79
9889;BME280;4983;42.112;24.738;2024-02-15T04:32:12;100142.59;;;7.43;51.91
9889;BME280;4983;42.112;24.738;2024-02-15T04:34:39;100150.63;;;7.42;52.70
9889;BME280;4983;42.112;24.738;2024-02-15T04:37:04;100142.75;;;7.42;51.81
9889;BME280;4983;42.112;24.738;2024-02-15T04:39:34;100147.84;;;7.43;52.36
9889;BME280;4983;42.112;24.738;2024-02-15T04:42:01;100144.13;;;7.36;52.08
9889;BME280;4983;42.112;24.738;2024-02-15T04:44:26;100161.41;;;7.39;52.37
9889;BME280;4983;42.112;24.738;2024-02-15T04:46:53;100155.06;;;7.32;53.06
9889;BME280;4983;42.112;24.738;2024-02-15T04:49:19;100153.13;;;7.34;52.57
9889;BME280;4983;42.112;24.738;2024-02-15T04:51:45;100156.16;;;7.39;52.90
9889;BME280;4983;42.112;24.738;2024-02-15T04:54:12;100141.66;;;7.25;52.95
9889;BME280;4983;42.112;24.738;2024-02-15T04:56:41;100153.13;;;7.34;52.68
9889;BME280;4983;42.112;24.738;2024-02-15T04:59:08;100155.22;;;7.30;52.34
9889;BME280;4983;42.112;24.738;2024-02-15T05:01:34;100150.91;;;7.29;53.14
9889;BME280;4983;42.112;24.738;2024-02-15T05:04:00;100160.31;;;7.32;53.38
9889;BME280;4983;42.112;24.738;2024-02-15T05:06:29;100157.53;;;7.33;52.17
9889;BME280;4983;42.112;24.738;2024-02-15T05:08:55;100150.22;;;7.37;51.61
9889;BME280;4983;42.112;24.738;2024-02-15T05:11:22;100164.72;;;7.41;53.74
9889;BME280;4983;42.112;24.738;2024-02-15T05:13:48;100152.81;;;7.56;52.95
9889;BME280;4983;42.112;24.738;2024-02-15T05:16:17;100163.00;;;7.68;55.52
9889;BME280;4983;42.112;24.738;2024-02-15T05:18:43;100160.94;;;7.72;53.00
9889;BME280;4983;42.112;24.738;2024-02-15T05:21:09;100162.28;;;7.76;50.87
9889;BME280;4983;42.112;24.738;2024-02-15T05:23:38;100165.78;;;7.67;51.75
9889;BME280;4983;42.112;24.738;2024-02-15T05:26:05;100157.06;;;7.57;51.90
9889;BME280;4983;42.112;24.738;2024-02-15T05:28:31;100167.91;;;7.54;52.25
9889;BME280;4983;42.112;24.738;2024-02-15T05:31:10;100178.53;;;7.52;50.79
9889;BME280;4983;42.112;24.738;2024-02-15T05:33:56;100172.44;;;7.52;51.58
9889;BME280;4983;42.112;24.738;2024-02-15T05:36:23;100178.41;;;7.54;51.63
9889;BME280;4983;42.112;24.738;2024-02-15T05:38:52;100182.69;;;7.55;51.13
9889;BME280;4983;42.112;24.738;2024-02-15T05:41:18;100181.84;;;7.54;51.84
9889;BME280;4983;42.112;24.738;2024-02-15T05:43:44;100187.38;;;7.51;51.57
9889;BME280;4983;42.112;24.738;2024-02-15T05:46:10;100192.22;;;7.56;51.47
9889;BME280;4983;42.112;24.738;2024-02-15T05:48:37;100194.69;;;7.57;52.02
9889;BME280;4983;42.112;24.738;2024-02-15T05:51:07;100199.13;;;7.57;51.60
9889;BME280;4983;42.112;24.738;2024-02-15T05:53:33;100198.44;;;7.55;51.60
9889;BME280;4983;42.112;24.738;2024-02-15T05:56:04;100198.16;;;7.58;52.49
9889;BME280;4983;42.112;24.738;2024-02-15T05:58:31;100203.69;;;7.55;51.55
9889;BME280;4983;42.112;24.738;2024-02-15T06:00:58;100198.44;;;7.55;51.01
9889;BME280;4983;42.112;24.738;2024-02-15T06:03:29;100200.94;;;7.56;52.59
9889;BME280;4983;42.112;24.738;2024-02-15T06:05:57;100201.19;;;7.63;51.76
9889;BME280;4983;42.112;24.738;2024-02-15T06:08:29;100209.06;;;7.63;51.96
9889;BME280;4983;42.112;24.738;2024-02-15T06:10:55;100213.78;;;7.59;51.61
9889;BME280;4983;42.112;24.738;2024-02-15T06:13:21;100218.19;;;7.68;51.89
9889;BME280;4983;42.112;24.738;2024-02-15T06:15:47;100212.41;;;7.65;51.68
9889;BME280;4983;42.112;24.738;2024-02-15T06:18:18;100216.41;;;7.69;51.07
9889;BME280;4983;42.112;24.738;2024-02-15T06:20:47;100227.59;;;7.71;51.08
9889;BME280;4983;42.112;24.738;2024-02-15T06:23:14;100220.25;;;7.74;51.73
9889;BME280;4983;42.112;24.738;2024-02-15T06:25:40;100226.19;;;7.76;51.91
9889;BME280;4983;42.112;24.738;2024-02-15T06:28:05;100217.75;;;7.82;51.95
9889;BME280;4983;42.112;24.738;2024-02-15T06:30:41;100218.44;;;7.84;52.08
9889;BME280;4983;42.112;24.738;2024-02-15T06:33:25;100224.38;;;7.86;51.63
9889;BME280;4983;42.112;24.738;2024-02-15T06:36:09;100225.75;;;7.81;51.76
9889;BME280;4983;42.112;24.738;2024-02-15T06:38:53;100229.38;;;7.80;51.39
9889;BME280;4983;42.112;24.738;2024-02-15T06:41:37;100234.22;;;7.84;52.21
9889;BME280;4983;42.112;24.738;2024-02-15T06:44:02;100235.72;;;7.87;51.44
9889;BME280;4983;42.112;24.738;2024-02-15T06:46:28;100233.19;;;7.95;50.94
9889;BME280;4983;42.112;24.738;2024-02-15T06:48:54;100238.47;;;7.95;51.46
9889;BME280;4983;42.112;24.738;2024-02-15T06:51:19;100244.94;;;8.00;51.21
9889;BME280;4983;42.112;24.738;2024-02-15T06:53:45;100245.94;;;7.99;50.61
9889;BME280;4983;42.112;24.738;2024-02-15T06:56:11;100241.66;;;7.98;50.95
9889;BME280;4983;42.112;24.738;2024-02-15T06:58:39;100244.13;;;8.00;50.63
9889;BME280;4983;42.112;24.738;2024-02-15T07:01:05;100248.53;;;8.09;50.38
9889;BME280;4983;42.112;24.738;2024-02-15T07:03:31;100242.28;;;8.10;50.51
9889;BME280;4983;42.112;24.738;2024-02-15T07:05:57;100255.00;;;8.14;50.76
9889;BME280;4983;42.112;24.738;2024-02-15T07:08:23;100250.97;;;8.20;51.14
9889;BME280;4983;42.112;24.738;2024-02-15T07:10:51;100246.69;;;8.19;50.38
9889;BME280;4983;42.112;24.738;2024-02-15T07:13:19;100246.44;;;8.22;50.51
9889;BME280;4983;42.112;24.738;2024-02-15T07:15:45;100246.69;;;8.28;50.44
9889;BME280;4983;42.112;24.738;2024-02-15T07:18:12;100250.69;;;8.32;49.92
9889;BME280;4983;42.112;24.738;2024-02-15T07:20:37;100250.78;;;8.40;50.56
9889;BME280;4983;42.112;24.738;2024-02-15T07:23:03;100252.75;;;8.38;49.78
9889;BME280;4983;42.112;24.738;2024-02-15T07:25:30;100256.41;;;8.55;48.95
9889;BME280;4983;42.112;24.738;2024-02-15T07:27:56;100260.41;;;8.59;48.90
9889;BME280;4983;42.112;24.738;2024-02-15T07:30:22;100255.00;;;8.60;49.66
9889;BME280;4983;42.112;24.738;2024-02-15T07:32:48;100258.97;;;8.64;49.22
9889;BME280;4983;42.112;24.738;2024-02-15T07:35:14;100248.59;;;8.63;49.40
9889;BME280;4983;42.112;24.738;2024-02-15T07:37:51;100243.75;;;8.68;49.32
9889;BME280;4983;42.112;24.738;2024-02-15T07:40:16;100254.56;;;8.65;48.94
9889;BME280;4983;42.112;24.738;2024-02-15T07:42:42;100251.78;;;8.66;49.06
9889;BME280;4983;42.112;24.738;2024-02-15T07:45:08;100253.81;;;8.72;48.03
9889;BME280;4983;42.112;24.738;2024-02-15T07:47:35;100260.47;;;8.76;48.25
9889;BME280;4983;42.112;24.738;2024-02-15T07:50:00;100255.19;;;8.76;48.28
9889;BME280;4983;42.112;24.738;2024-02-15T07:52:26;100243.69;;;8.77;49.01
9889;BME280;4983;42.112;24.738;2024-02-15T07:54:51;100255.66;;;8.89;48.80
9889;BME280;4983;42.112;24.738;2024-02-15T07:57:17;100261.56;;;9.36;47.36
9889;BME280;4983;42.112;24.738;2024-02-15T07:59:43;100265.00;;;9.54;46.32
9889;BME280;4983;42.112;24.738;2024-02-15T08:02:09;100254.28;;;9.73;46.93
9889;BME280;4983;42.112;24.738;2024-02-15T08:04:35;100265.06;;;10.05;46.82
9889;BME280;4983;42.112;24.738;2024-02-15T08:07:06;100258.97;;;10.30;43.83
9889;BME280;4983;42.112;24.738;2024-02-15T08:09:36;100264.56;;;10.61;45.63
9889;BME280;4983;42.112;24.738;2024-02-15T08:12:01;100250.81;;;10.83;42.77
9889;BME280;4983;42.112;24.738;2024-02-15T08:14:28;100257.66;;;10.68;43.79
9889;BME280;4983;42.112;24.738;2024-02-15T08:16:53;100251.06;;;10.72;43.00
9889;BME280;4983;42.112;24.738;2024-02-15T08:19:20;100259.91;;;10.88;44.37
9889;BME280;4983;42.112;24.738;2024-02-15T08:21:48;100263.25;;;11.06;42.98
9889;BME280;4983;42.112;24.738;2024-02-15T08:24:16;100268.22;;;11.25;42.83
9889;BME280;4983;42.112;24.738;2024-02-15T08:26:42;100267.84;;;10.96;42.37
9889;BME280;4983;42.112;24.738;2024-02-15T08:29:08;100263.09;;;11.16;42.31
9889;BME280;4983;42.112;24.738;2024-02-15T08:31:39;100266.91;;;11.21;42.42
9889;BME280;4983;42.112;24.738;2024-02-15T08:34:04;100268.75;;;11.37;41.95
9889;BME280;4983;42.112;24.738;2024-02-15T08:36:31;100264.94;;;11.39;40.88
9889;BME280;4983;42.112;24.738;2024-02-15T08:38:56;100259.81;;;11.22;40.98
9889;BME280;4983;42.112;24.738;2024-02-15T08:41:22;100261.47;;;11.31;41.48
9889;BME280;4983;42.112;24.738;2024-02-15T08:43:52;100253.25;;;11.66;40.72
9889;BME280;4983;42.112;24.738;2024-02-15T08:46:17;100261.66;;;11.93;41.71
9889;BME280;4983;42.112;24.738;2024-02-15T08:48:43;100254.53;;;12.02;40.15
9889;BME280;4983;42.112;24.738;2024-02-15T08:51:09;100249.09;;;11.87;40.32
9889;BME280;4983;42.112;24.738;2024-02-15T08:53:35;100263.94;;;11.40;41.35
9889;BME280;4983;42.112;24.738;2024-02-15T08:56:06;100270.13;;;11.65;41.58
9889;BME280;4983;42.112;24.738;2024-02-15T08:58:34;100262.66;;;11.60;41.50
9889;BME280;4983;42.112;24.738;2024-02-15T09:01:00;100258.66;;;11.40;41.84
9889;BME280;4983;42.112;24.738;2024-02-15T09:03:25;100247.94;;;11.58;42.32
9889;BME280;4983;42.112;24.738;2024-02-15T09:05:50;100252.56;;;11.48;41.55
9889;BME280;4983;42.112;24.738;2024-02-15T09:08:17;100256.34;;;11.29;41.24
9889;BME280;4983;42.112;24.738;2024-02-15T09:10:55;100248.78;;;11.74;41.96
9889;BME280;4983;42.112;24.738;2024-02-15T09:13:20;100249.38;;;12.17;40.82
9889;BME280;4983;42.112;24.738;2024-02-15T09:15:45;100254.50;;;12.65;38.77
9889;BME280;4983;42.112;24.738;2024-02-15T09:18:12;100251.00;;;12.26;40.02
9889;BME280;4983;42.112;24.738;2024-02-15T09:20:38;100238.91;;;12.31;39.62
9889;BME280;4983;42.112;24.738;2024-02-15T09:23:09;100245.59;;;12.58;38.55
9889;BME280;4983;42.112;24.738;2024-02-15T09:25:43;100237.22;;;12.77;38.52
9889;BME280;4983;42.112;24.738;2024-02-15T09:28:09;100242.47;;;12.93;38.98
9889;BME280;4983;42.112;24.738;2024-02-15T09:30:34;100244.41;;;13.07;38.33
9889;BME280;4983;42.112;24.738;2024-02-15T09:33:00;100238.69;;;13.18;37.10
9889;BME280;4983;42.112;24.738;2024-02-15T09:35:30;100233.00;;;12.98;38.99
9889;BME280;4983;42.112;24.738;2024-02-15T09:37:56;100235.66;;;12.60;38.90
9889;BME280;4983;42.112;24.738;2024-02-15T09:40:21;100218.44;;;12.64;39.09
9889;BME280;4983;42.112;24.738;2024-02-15T09:42:51;100221.66;;;13.12;38.63
9889;BME280;4983;42.112;24.738;2024-02-15T09:45:18;100213.78;;;13.27;37.04
9889;BME280;4983;42.112;24.738;2024-02-15T09:47:46;100219.28;;;13.62;37.91
9889;BME280;4983;42.112;24.738;2024-02-15T09:50:15;100216.88;;;13.53;37.18
9889;BME280;4983;42.112;24.738;2024-02-15T09:52:44;100216.19;;;13.36;37.79
9889;BME280;4983;42.112;24.738;2024-02-15T09:55:10;100205.97;;;13.48;37.04
9889;BME280;4983;42.112;24.738;2024-02-15T09:57:45;100195.22;;;12.96;37.69
9889;BME280;4983;42.112;24.738;2024-02-15T10:00:14;100198.97;;;12.41;37.88
9889;BME280;4983;42.112;24.738;2024-02-15T10:02:41;100195.16;;;12.82;38.67
9889;BME280;4983;42.112;24.738;2024-02-15T10:05:08;100191.19;;;13.08;38.44
9889;BME280;4983;42.112;24.738;2024-02-15T10:07:43;100199.00;;;13.47;36.94
9889;BME280;4983;42.112;24.738;2024-02-15T10:10:19;100189.09;;;13.41;36.61
9889;BME280;4983;42.112;24.738;2024-02-15T10:13:03;100184.47;;;13.43;36.18
9889;BME280;4983;42.112;24.738;2024-02-15T10:15:33;100184.06;;;13.31;37.21
9889;BME280;4983;42.112;24.738;2024-02-15T10:18:06;100180.78;;;13.29;37.70
9889;BME280;4983;42.112;24.738;2024-02-15T10:20:34;100170.97;;;13.30;36.67
9889;BME280;4983;42.112;24.738;2024-02-15T10:25:29;100164.16;;;13.13;39.17
9889;BME280;4983;42.112;24.738;2024-02-15T10:28:14;100169.03;;;13.61;36.52
9889;BME280;4983;42.112;24.738;2024-02-15T10:30:44;100155.09;;;13.07;37.16
9889;BME280;4983;42.112;24.738;2024-02-15T10:33:19;100156.50;;;13.18;37.82
9889;BME280;4983;42.112;24.738;2024-02-15T10:35:47;100153.78;;;13.63;36.63
9889;BME280;4983;42.112;24.738;2024-02-15T10:38:13;100154.47;;;14.23;37.51
9889;BME280;4983;42.112;24.738;2024-02-15T10:40:39;100145.09;;;13.98;35.70
9889;BME280;4983;42.112;24.738;2024-02-15T10:43:09;100144.53;;;14.17;37.25
9889;BME280;4983;42.112;24.738;2024-02-15T10:45:38;100154.31;;;14.60;36.36
9889;BME280;4983;42.112;24.738;2024-02-15T10:48:08;100137.25;;;14.90;34.75
9889;BME280;4983;42.112;24.738;2024-02-15T10:50:35;100136.69;;;15.37;33.88
9889;BME280;4983;42.112;24.738;2024-02-15T10:53:07;100136.50;;;15.17;34.06
9889;BME280;4983;42.112;24.738;2024-02-15T10:55:42;100140.00;;;14.96;34.45
9889;BME280;4983;42.112;24.738;2024-02-15T10:58:12;100131.88;;;14.83;34.90
9889;BME280;4983;42.112;24.738;2024-02-15T11:00:39;100133.59;;;14.91;33.47
9889;BME280;4983;42.112;24.738;2024-02-15T11:03:08;100125.16;;;15.08;33.86
9889;BME280;4983;42.112;24.738;2024-02-15T11:05:35;100116.63;;;14.92;34.01
9889;BME280;4983;42.112;24.738;2024-02-15T11:08:10;100113.97;;;15.13;36.62
9889;BME280;4983;42.112;24.738;2024-02-15T11:10:37;100118.06;;;15.37;35.19
9889;BME280;4983;42.112;24.738;2024-02-15T11:13:03;100113.94;;;15.34;34.52
9889;BME280;4983;42.112;24.738;2024-02-15T11:18:02;100106.84;;;15.20;33.65
9889;BME280;4983;42.112;24.738;2024-02-15T11:20:49;100090.75;;;15.56;34.39
9889;BME280;4983;42.112;24.738;2024-02-15T11:23:23;100090.53;;;15.85;32.26
9889;BME280;4983;42.112;24.738;2024-02-15T11:25:50;100079.13;;;15.97;33.36
9889;BME280;4983;42.112;24.738;2024-02-15T11:30:51;100083.31;;;16.73;31.57
9889;BME280;4983;42.112;24.738;2024-02-15T11:33:35;100079.81;;;16.59;30.96
9889;BME280;4983;42.112;24.738;2024-02-15T11:36:11;100084.50;;;16.04;32.42
9889;BME280;4983;42.112;24.738;2024-02-15T11:38:38;100080.56;;;15.59;31.58
9889;BME280;4983;42.112;24.738;2024-02-15T11:41:07;100077.81;;;15.25;33.38
9889;BME280;4983;42.112;24.738;2024-02-15T11:46:24;100057.56;;;15.52;32.26
9889;BME280;4983;42.112;24.738;2024-02-15T11:48:53;100075.00;;;15.33;33.00
9889;BME280;4983;42.112;24.738;2024-02-15T11:51:30;100069.69;;;15.33;32.64
9889;BME280;4983;42.112;24.738;2024-02-15T11:54:20;100059.44;;;15.92;33.32
9889;BME280;4983;42.112;24.738;2024-02-15T11:56:58;100063.97;;;16.45;30.66
9889;BME280;4983;42.112;24.738;2024-02-15T11:59:42;100055.63;;;16.61;31.57
9889;BME280;4983;42.112;24.738;2024-02-15T12:02:19;100066.88;;;16.56;32.03
9889;BME280;4983;42.112;24.738;2024-02-15T12:05:05;100065.09;;;16.96;30.27
9889;BME280;4983;42.112;24.738;2024-02-15T12:07:49;100054.00;;;17.31;30.08
9889;BME280;4983;42.112;24.738;2024-02-15T12:10:33;100061.53;;;17.80;29.79
9889;BME280;4983;42.112;24.738;2024-02-15T12:13:20;100055.06;;;18.07;28.94
9889;BME280;4983;42.112;24.738;2024-02-15T12:16:03;100060.16;;;17.51;28.92
9889;BME280;4983;42.112;24.738;2024-02-15T12:18:48;100052.53;;;17.35;29.42
9889;BME280;4983;42.112;24.738;2024-02-15T12:21:22;100046.19;;;17.49;30.01
9889;BME280;4983;42.112;24.738;2024-02-15T12:23:49;100048.88;;;17.23;29.79
9889;BME280;4983;42.112;24.738;2024-02-15T12:26:20;100055.41;;;17.66;30.96
9889;BME280;4983;42.112;24.738;2024-02-15T12:28:52;100050.38;;;17.89;29.56
9889;BME280;4983;42.112;24.738;2024-02-15T12:31:24;100052.91;;;18.29;29.64
9889;BME280;4983;42.112;24.738;2024-02-15T12:36:26;100039.31;;;18.30;28.35
9889;BME280;4983;42.112;24.738;2024-02-15T12:39:03;100045.28;;;17.81;28.75
9889;BME280;4983;42.112;24.738;2024-02-15T12:41:38;100048.88;;;18.13;28.42
9889;BME280;4983;42.112;24.738;2024-02-15T12:44:06;100039.34;;;18.68;27.43
9889;BME280;4983;42.112;24.738;2024-02-15T12:46:36;100035.88;;;19.16;26.81
9889;BME280;4983;42.112;24.738;2024-02-15T12:49:09;100045.00;;;19.33;26.91
9889;BME280;4983;42.112;24.738;2024-02-15T12:51:39;100033.34;;;19.64;27.82
9889;BME280;4983;42.112;24.738;2024-02-15T12:54:09;100028.28;;;19.38;26.11
9889;BME280;4983;42.112;24.738;2024-02-15T12:56:36;100030.91;;;19.20;26.80
9889;BME280;4983;42.112;24.738;2024-02-15T12:59:01;100030.97;;;19.38;26.68
9889;BME280;4983;42.112;24.738;2024-02-15T13:01:28;100039.25;;;19.05;26.22
9889;BME280;4983;42.112;24.738;2024-02-15T13:03:54;100031.59;;;18.09;27.32
9889;BME280;4983;42.112;24.738;2024-02-15T13:06:19;100029.16;;;17.37;28.88
9889;BME280;4983;42.112;24.738;2024-02-15T13:08:49;100024.03;;;17.29;28.51
9889;BME280;4983;42.112;24.738;2024-02-15T13:11:14;100026.84;;;17.60;29.58
9889;BME280;4983;42.112;24.738;2024-02-15T13:13:41;100026.38;;;17.83;28.13
9889;BME280;4983;42.112;24.738;2024-02-15T13:16:07;100033.25;;;17.46;28.36
9889;BME280;4983;42.112;24.738;2024-02-15T13:18:33;100031.19;;;17.61;28.29
9889;BME280;4983;42.112;24.738;2024-02-15T13:20:58;100035.03;;;17.78;28.26
9889;BME280;4983;42.112;24.738;2024-02-15T13:23:24;100026.88;;;17.54;28.78
9889;BME280;4983;42.112;24.738;2024-02-15T13:25:51;100031.81;;;17.50;28.54
9889;BME280;4983;42.112;24.738;2024-02-15T13:28:17;100022.38;;;17.28;28.61